NCAR-RAP Real-Time Weather Data

Output produced by METARs form (23 January 2018  15:40 UTC)
found at http://weather.rap.ucar.edu/surface/
 
RJOH 231500Z 26021KT 9999 -SHSN FEW020 BKN030 BKN045 00/M09 Q1016
RJOH 231400Z 26017G27KT 9999 -SHSN FEW020 BKN030 BKN045 00/M09 Q1016
RJOH 231300Z 27015G25KT 9999 -SHSN FEW020 BKN030 BKN045 00/M08 Q1016
RJOH 231200Z 28022KT 9999 -SHSN FEW010 SCT015 BKN030 M00/M07 Q1016
RJOH 231100Z 26019G39KT 9999 -SHSN FEW010 SCT015 BKN030 01/M12 Q1016
RJOH 231000Z 26018KT 9999 -SHSN FEW010 SCT015 BKN030 01/M11 Q1016
RJOH 230900Z 26019KT 9999 -SHSN FEW008 SCT015 BKN030 01/M09 Q1016
RJOH 230800Z 26018G29KT 9999 -SHSN FEW008 SCT015 BKN030 01/M11 Q1015
RJOH 230700Z 27019KT 9999 -SHSN FEW008 SCT015 BKN030 02/M11 Q1015
RJOH 230600Z 27026G37KT 9999 -SHSN FEW008 SCT015 BKN030 02/M10 Q1015
RJOH 230500Z 27025G41KT 9999 -SHSNRA FEW015 SCT030 BKN050 03/M11 Q1014
RJOH 230400Z 27025G40KT 9999 FEW025 SCT030 BKN120 04/M11 Q1014
RJOH 230300Z 28027G44KT 9999 FEW025 BKN030 BKN120 05/M08 Q1013
RJOH 230200Z 27029G39KT 9999 FEW025 BKN035 BKN050 05/M06 Q1013
RJOH 230100Z 27024G36KT 9999 FEW025 BKN035 BKN050 07/M05 Q1012
RJOH 230000Z 27022G32KT 9999 FEW020 SCT030 BKN050 06/M06 Q1011
RJOH 222300Z 27025KT 9999 FEW030 SCT050 06/M05 Q1011
RJOH 222200Z 26021G31KT 9999 FEW030 SCT045 06/M02 Q1009
RJOH 222100Z 27021KT 9999 -SHRA FEW020 BKN030 BKN050 06/01 Q1009
RJOH 222000Z 23010KT 9999 -SHRA FEW015 BKN025 BKN050 05/02 Q1008
RJOH 221900Z 21010KT 9999 -SHRA FEW015 BKN025 BKN050 05/02 Q1008 RETS
RJOH 221800Z 21009KT 7000 -TSRA FEW015 BKN025 SCT025CB BKN050 05/02 Q1008
RJOH 221700Z 20009KT 9999 -TSRA FEW015 BKN025 FEW025CB BKN050 05/02 Q1009
RJOH 221600Z 23019KT 7000 -SHRA FEW015 BKN025 SCT025TCU BKN050 05/02 Q1010
RJOH 221500Z 19006KT 9999 -SHRA FEW020 BKN030 BKN050 02/00 Q1010
RJOH 221400Z 19005KT 9999 FEW020 SCT030 BKN050 02/M01 Q1010
RJOH 221300Z 19005KT 9999 FEW030 SCT050 02/M01 Q1011
RJOH 221200Z 22006KT 9999 -SHRA FEW025 SCT030 BKN050 03/01 Q1012
RJOH 221100Z 24005KT 9999 FEW030 BKN050 03/01 Q1012
RJOH 221000Z 20004KT 9999 FEW005 SCT060 02/M00 Q1012
RJOH 220900Z 26005KT 9999 FEW004 SCT005 03/01 Q1012
RJOH 220800Z 23006KT 9999 FEW004 SCT005 BKN045 03/01 Q1012
RJOH 220700Z 22006KT 9999 FEW004 BKN005 BKN100 03/01 Q1012
RJOH 220600Z 25006KT 210V270 7000 -RA FEW004 BKN006 BKN015 03/00 Q1012
RJOH 220500Z 27004KT 7000 -RA FEW004 SCT005 BKN007 03/00 Q1012
RJOH 220400Z 22005KT 9999 -RA FEW006 BKN008 OVC015 03/00 Q1013
RJOH 220300Z 21007KT 8000 -RA FEW007 SCT009 OVC015 03/00 Q1014
RJOH 220200Z 19008KT 9999 -RA FEW015 BKN020 OVC030 04/00 Q1016
RJOH 220100Z 18006KT 9999 -RA FEW020 BKN030 OVC050 04/00 Q1017
RJOH 220000Z 24003KT 9999 FEW020 SCT030 BKN050 04/M00 Q1017
RJOH 212300Z 19004KT 9999 FEW005 BKN080 OVC120 03/M00 Q1017
RJOH 212200Z VRB02KT 9999 FEW005 BKN080 BKN120 03/00 Q1016
RJOH 212100Z 36004KT 330V060 9999 FEW050 BKN080 BKN120 03/00 Q1017
RJOH 212000Z 20004KT 9999 FEW050 SCT080 BKN120 03/00 Q1018
RJOH 211900Z 20004KT 9999 FEW050 BKN120 BKN150 02/M01 Q1019
RJOH 211800Z 16003KT 9999 FEW030 SCT050 BKN180 02/M01 Q1019
RJOH 211700Z 22004KT 9999 FEW030 SCT035 BKN050 02/M01 Q1019
RJOH 211600Z 13003KT 060V180 9999 -SHRA FEW030 BKN035 BKN050 03/M01 Q1019
RJOH 211500Z 19005KT 9999 FEW030 BKN035 BKN050 03/M01 Q1020
RJOH 211400Z 19006KT 9999 FEW030 BKN035 04/M01 Q1021
RJOH 211300Z 19004KT 070V220 9999 FEW030 BKN035 04/M01 Q1021
RJOH 211200Z 03007KT 9999 FEW030 SCT/// 07/M04 Q1021
RJOH 211100Z 02006KT 9999 FEW030 SCT050 07/M03 Q1022
RJOH 211000Z 35008KT 9999 FEW030 BKN050 07/M03 Q1022
RJOH 210900Z 28006KT 9999 FEW030 BKN050 07/M04 Q1022
RJOH 210800Z 28006KT 9999 FEW030 BKN050 07/M05 Q1021
RJOH 210700Z 32010KT 9999 FEW030 BKN050 08/M05 Q1021
RJOH 210600Z 31012KT 9999 FEW030 BKN050 09/M05 Q1021
RJOH 210500Z 29011KT 9999 FEW030 BKN050 09/M07 Q1020
RJOH 210400Z 30010KT 9999 FEW030 BKN050 09/M05 Q1020